sensor_id;sensor_type;location;lat;lon;timestamp;temperature;humidity
8780;DHT22;62328;51.19929245;4.42130175;2024-01-15T00:00:38;4.50;99.90
8780;DHT22;62328;51.19929245;4.42130175;2024-01-15T00:03:07;4.50;99.90
8780;DHT22;62328;51.19929245;4.42130175;2024-01-15T00:05:35;4.50;99.90
8780;DHT22;62328;51.19929245;4.42130175;2024-01-15T00:08:02;4.50;99.90
8780;DHT22;62328;51.19929245;4.42130175;2024-01-15T00:10:30;4.50;99.90
8780;DHT22;62328;51.19929245;4.42130175;2024-01-15T00:12:57;4.50;99.90
8780;DHT22;62328;51.19929245;4.42130175;2024-01-15T00:15:24;4.60;99.90
8780;DHT22;62328;51.19929245;4.42130175;2024-01-15T00:17:54;4.60;99.90
8780;DHT22;62328;51.19929245;4.42130175;2024-01-15T00:20:22;4.60;99.90
8780;DHT22;62328;51.19929245;4.42130175;2024-01-15T00:22:50;4.70;99.90
8780;DHT22;62328;51.19929245;4.42130175;2024-01-15T00:25:17;4.70;99.90
8780;DHT22;62328;51.19929245;4.42130175;2024-01-15T00:27:44;4.70;99.90
8780;DHT22;62328;51.19929245;4.42130175;2024-01-15T00:30:13;4.80;99.90
8780;DHT22;62328;51.19929245;4.42130175;2024-01-15T00:32:40;4.70;99.90
8780;DHT22;62328;51.19929245;4.42130175;2024-01-15T00:35:07;4.70;99.90
8780;DHT22;62328;51.19929245;4.42130175;2024-01-15T00:37:36;4.70;99.90
8780;DHT22;62328;51.19929245;4.42130175;2024-01-15T00:40:04;4.70;99.90
8780;DHT22;62328;51.19929245;4.42130175;2024-01-15T00:42:33;4.70;99.90
8780;DHT22;62328;51.19929245;4.42130175;2024-01-15T00:45:00;4.70;99.90
8780;DHT22;62328;51.19929245;4.42130175;2024-01-15T00:47:27;4.70;99.90
8780;DHT22;62328;51.19929245;4.42130175;2024-01-15T00:49:55;4.70;99.90
8780;DHT22;62328;51.19929245;4.42130175;2024-01-15T00:52:22;4.70;99.90
8780;DHT22;62328;51.19929245;4.42130175;2024-01-15T00:54:50;4.70;99.90
8780;DHT22;62328;51.19929245;4.42130175;2024-01-15T00:57:18;4.70;99.90
8780;DHT22;62328;51.19929245;4.42130175;2024-01-15T00:59:45;4.70;99.90
8780;DHT22;62328;51.19929245;4.42130175;2024-01-15T01:02:12;4.80;99.90
8780;DHT22;62328;51.19929245;4.42130175;2024-01-15T01:04:40;4.80;99.90
8780;DHT22;62328;51.19929245;4.42130175;2024-01-15T01:07:07;4.80;99.90
8780;DHT22;62328;51.19929245;4.42130175;2024-01-15T01:09:34;4.80;99.90
8780;DHT22;62328;51.19929245;4.42130175;2024-01-15T01:12:03;4.80;99.90
8780;DHT22;62328;51.19929245;4.42130175;2024-01-15T01:14:31;4.80;99.90
8780;DHT22;62328;51.19929245;4.42130175;2024-01-15T01:16:58;4.80;99.90
8780;DHT22;62328;51.19929245;4.42130175;2024-01-15T01:19:26;4.90;99.90
8780;DHT22;62328;51.19929245;4.42130175;2024-01-15T01:21:53;4.90;99.90
8780;DHT22;62328;51.19929245;4.42130175;2024-01-15T01:24:20;4.90;99.90
8780;DHT22;62328;51.19929245;4.42130175;2024-01-15T01:26:47;4.80;99.90
8780;DHT22;62328;51.19929245;4.42130175;2024-01-15T01:29:16;4.80;99.90
8780;DHT22;62328;51.19929245;4.42130175;2024-01-15T01:31:43;4.80;99.90
8780;DHT22;62328;51.19929245;4.42130175;2024-01-15T01:34:13;4.90;99.90
8780;DHT22;62328;51.19929245;4.42130175;2024-01-15T01:36:40;4.80;99.90
8780;DHT22;62328;51.19929245;4.42130175;2024-01-15T01:39:08;4.80;99.90
8780;DHT22;62328;51.19929245;4.42130175;2024-01-15T01:41:35;4.90;99.90
8780;DHT22;62328;51.19929245;4.42130175;2024-01-15T01:44:03;4.90;99.90
8780;DHT22;62328;51.19929245;4.42130175;2024-01-15T01:46:31;4.80;99.90
8780;DHT22;62328;51.19929245;4.42130175;2024-01-15T01:48:59;4.90;99.90
8780;DHT22;62328;51.19929245;4.42130175;2024-01-15T01:51:31;4.90;99.90
8780;DHT22;62328;51.19929245;4.42130175;2024-01-15T01:53:59;4.80;99.90
8780;DHT22;62328;51.19929245;4.42130175;2024-01-15T01:56:26;4.80;99.90
8780;DHT22;62328;51.19929245;4.42130175;2024-01-15T01:58:54;4.80;99.90
8780;DHT22;62328;51.19929245;4.42130175;2024-01-15T02:01:21;4.90;99.90
8780;DHT22;62328;51.19929245;4.42130175;2024-01-15T02:03:50;4.90;99.90
8780;DHT22;62328;51.19929245;4.42130175;2024-01-15T02:06:18;4.90;99.90
8780;DHT22;62328;51.19929245;4.42130175;2024-01-15T02:08:45;4.90;99.90
8780;DHT22;62328;51.19929245;4.42130175;2024-01-15T02:11:12;4.90;99.90
8780;DHT22;62328;51.19929245;4.42130175;2024-01-15T02:13:40;4.90;99.90
8780;DHT22;62328;51.19929245;4.42130175;2024-01-15T02:16:07;4.90;99.90
8780;DHT22;62328;51.19929245;4.42130175;2024-01-15T02:18:40;4.90;99.90
8780;DHT22;62328;51.19929245;4.42130175;2024-01-15T02:21:10;5.00;99.90
8780;DHT22;62328;51.19929245;4.42130175;2024-01-15T02:23:39;5.00;99.90
8780;DHT22;62328;51.19929245;4.42130175;2024-01-15T02:26:06;5.00;99.90
8780;DHT22;62328;51.19929245;4.42130175;2024-01-15T02:28:34;5.00;99.90
8780;DHT22;62328;51.19929245;4.42130175;2024-01-15T02:31:01;4.90;99.90
8780;DHT22;62328;51.19929245;4.42130175;2024-01-15T02:33:29;5.00;99.90
8780;DHT22;62328;51.19929245;4.42130175;2024-01-15T02:35:56;5.00;99.90
8780;DHT22;62328;51.19929245;4.42130175;2024-01-15T02:38:23;5.00;99.90
8780;DHT22;62328;51.19929245;4.42130175;2024-01-15T02:40:51;5.00;99.90
8780;DHT22;62328;51.19929245;4.42130175;2024-01-15T02:43:18;5.10;99.90
8780;DHT22;62328;51.19929245;4.42130175;2024-01-15T02:45:46;5.00;99.90
8780;DHT22;62328;51.19929245;4.42130175;2024-01-15T02:48:13;5.00;99.90
8780;DHT22;62328;51.19929245;4.42130175;2024-01-15T02:50:41;5.00;99.90
8780;DHT22;62328;51.19929245;4.42130175;2024-01-15T02:53:08;5.00;99.90
8780;DHT22;62328;51.19929245;4.42130175;2024-01-15T02:55:35;5.00;99.90
8780;DHT22;62328;51.19929245;4.42130175;2024-01-15T02:58:04;5.00;99.90
8780;DHT22;62328;51.19929245;4.42130175;2024-01-15T03:00:31;5.00;99.90
8780;DHT22;62328;51.19929245;4.42130175;2024-01-15T03:02:58;5.00;99.90
8780;DHT22;62328;51.19929245;4.42130175;2024-01-15T03:05:26;4.90;99.90
8780;DHT22;62328;51.19929245;4.42130175;2024-01-15T03:07:53;5.00;99.90
8780;DHT22;62328;51.19929245;4.42130175;2024-01-15T03:10:20;5.00;99.90
8780;DHT22;62328;51.19929245;4.42130175;2024-01-15T03:12:47;5.00;99.90
8780;DHT22;62328;51.19929245;4.42130175;2024-01-15T03:15:17;5.00;99.90
8780;DHT22;62328;51.19929245;4.42130175;2024-01-15T03:17:45;5.00;99.90
8780;DHT22;62328;51.19929245;4.42130175;2024-01-15T03:20:12;5.10;99.90
8780;DHT22;62328;51.19929245;4.42130175;2024-01-15T03:22:39;5.00;99.90
8780;DHT22;62328;51.19929245;4.42130175;2024-01-15T03:25:07;5.10;99.90
8780;DHT22;62328;51.19929245;4.42130175;2024-01-15T03:27:34;5.00;99.90
8780;DHT22;62328;51.19929245;4.42130175;2024-01-15T03:30:01;5.00;99.90
8780;DHT22;62328;51.19929245;4.42130175;2024-01-15T03:32:30;5.10;99.90
8780;DHT22;62328;51.19929245;4.42130175;2024-01-15T03:34:57;5.00;99.90
8780;DHT22;62328;51.19929245;4.42130175;2024-01-15T03:37:25;5.10;99.90
8780;DHT22;62328;51.19929245;4.42130175;2024-01-15T03:39:52;5.10;99.90
8780;DHT22;62328;51.19929245;4.42130175;2024-01-15T03:42:19;5.10;99.90
8780;DHT22;62328;51.19929245;4.42130175;2024-01-15T03:44:46;5.10;99.90
8780;DHT22;62328;51.19929245;4.42130175;2024-01-15T03:47:13;5.00;99.90
8780;DHT22;62328;51.19929245;4.42130175;2024-01-15T03:49:42;5.00;99.90
8780;DHT22;62328;51.19929245;4.42130175;2024-01-15T03:52:09;5.00;99.90
8780;DHT22;62328;51.19929245;4.42130175;2024-01-15T03:54:36;5.00;99.90
8780;DHT22;62328;51.19929245;4.42130175;2024-01-15T03:57:03;5.00;99.90
8780;DHT22;62328;51.19929245;4.42130175;2024-01-15T03:59:30;5.00;99.90
8780;DHT22;62328;51.19929245;4.42130175;2024-01-15T04:01:59;5.00;99.90
8780;DHT22;62328;51.19929245;4.42130175;2024-01-15T04:04:26;5.00;99.90
8780;DHT22;62328;51.19929245;4.42130175;2024-01-15T04:06:54;5.00;99.90
8780;DHT22;62328;51.19929245;4.42130175;2024-01-15T04:09:21;5.00;99.90
8780;DHT22;62328;51.19929245;4.42130175;2024-01-15T04:11:48;4.90;99.90
8780;DHT22;62328;51.19929245;4.42130175;2024-01-15T04:14:15;4.90;99.90
8780;DHT22;62328;51.19929245;4.42130175;2024-01-15T04:16:42;4.90;99.90
8780;DHT22;62328;51.19929245;4.42130175;2024-01-15T04:19:10;4.80;99.90
8780;DHT22;62328;51.19929245;4.42130175;2024-01-15T04:21:38;4.70;99.90
8780;DHT22;62328;51.19929245;4.42130175;2024-01-15T04:24:07;4.70;99.90
8780;DHT22;62328;51.19929245;4.42130175;2024-01-15T04:26:34;4.80;99.90
8780;DHT22;62328;51.19929245;4.42130175;2024-01-15T04:29:01;4.70;99.90
8780;DHT22;62328;51.19929245;4.42130175;2024-01-15T04:31:29;4.80;99.90
8780;DHT22;62328;51.19929245;4.42130175;2024-01-15T04:33:56;4.80;99.90
8780;DHT22;62328;51.19929245;4.42130175;2024-01-15T04:36:23;4.70;99.90
8780;DHT22;62328;51.19929245;4.42130175;2024-01-15T04:38:50;4.70;99.90
8780;DHT22;62328;51.19929245;4.42130175;2024-01-15T04:41:19;4.70;99.90
8780;DHT22;62328;51.19929245;4.42130175;2024-01-15T04:43:46;4.70;99.90
8780;DHT22;62328;51.19929245;4.42130175;2024-01-15T04:46:13;4.70;99.90
8780;DHT22;62328;51.19929245;4.42130175;2024-01-15T04:48:41;4.70;99.90
8780;DHT22;62328;51.19929245;4.42130175;2024-01-15T04:51:09;4.60;99.90
8780;DHT22;62328;51.19929245;4.42130175;2024-01-15T04:53:36;4.70;99.90
8780;DHT22;62328;51.19929245;4.42130175;2024-01-15T04:56:04;4.70;99.90
8780;DHT22;62328;51.19929245;4.42130175;2024-01-15T04:58:32;4.60;99.90
8780;DHT22;62328;51.19929245;4.42130175;2024-01-15T05:01:00;4.60;99.90
8780;DHT22;62328;51.19929245;4.42130175;2024-01-15T05:03:27;4.60;99.90
8780;DHT22;62328;51.19929245;4.42130175;2024-01-15T05:05:55;4.70;99.90
8780;DHT22;62328;51.19929245;4.42130175;2024-01-15T05:08:22;4.60;99.90
8780;DHT22;62328;51.19929245;4.42130175;2024-01-15T05:10:49;4.60;99.90
8780;DHT22;62328;51.19929245;4.42130175;2024-01-15T05:13:20;4.50;99.90
8780;DHT22;62328;51.19929245;4.42130175;2024-01-15T05:15:48;4.50;99.90
8780;DHT22;62328;51.19929245;4.42130175;2024-01-15T05:18:16;4.50;99.90
8780;DHT22;62328;51.19929245;4.42130175;2024-01-15T05:20:44;4.50;99.90
8780;DHT22;62328;51.19929245;4.42130175;2024-01-15T05:23:11;4.50;99.90
8780;DHT22;62328;51.19929245;4.42130175;2024-01-15T05:25:38;4.50;99.90
8780;DHT22;62328;51.19929245;4.42130175;2024-01-15T05:28:06;4.50;99.90
8780;DHT22;62328;51.19929245;4.42130175;2024-01-15T05:30:33;4.50;99.90
8780;DHT22;62328;51.19929245;4.42130175;2024-01-15T05:33:02;4.50;99.90
8780;DHT22;62328;51.19929245;4.42130175;2024-01-15T05:35:29;4.50;99.90
8780;DHT22;62328;51.19929245;4.42130175;2024-01-15T05:37:56;4.50;99.90
8780;DHT22;62328;51.19929245;4.42130175;2024-01-15T05:40:24;4.50;99.90
8780;DHT22;62328;51.19929245;4.42130175;2024-01-15T05:42:51;4.50;99.90
8780;DHT22;62328;51.19929245;4.42130175;2024-01-15T05:45:18;4.50;99.90
8780;DHT22;62328;51.19929245;4.42130175;2024-01-15T05:47:45;4.70;99.90
8780;DHT22;62328;51.19929245;4.42130175;2024-01-15T05:50:14;4.70;99.90
8780;DHT22;62328;51.19929245;4.42130175;2024-01-15T05:52:40;4.70;99.90
8780;DHT22;62328;51.19929245;4.42130175;2024-01-15T05:55:08;4.70;99.90
8780;DHT22;62328;51.19929245;4.42130175;2024-01-15T05:57:41;4.70;99.90
8780;DHT22;62328;51.19929245;4.42130175;2024-01-15T06:00:09;4.60;99.90
8780;DHT22;62328;51.19929245;4.42130175;2024-01-15T06:02:37;4.60;99.90
8780;DHT22;62328;51.19929245;4.42130175;2024-01-15T06:05:10;4.60;99.90
8780;DHT22;62328;51.19929245;4.42130175;2024-01-15T06:07:38;4.60;99.90
8780;DHT22;62328;51.19929245;4.42130175;2024-01-15T06:10:06;4.30;99.90
8780;DHT22;62328;51.19929245;4.42130175;2024-01-15T06:12:34;4.50;99.90
8780;DHT22;62328;51.19929245;4.42130175;2024-01-15T06:15:01;4.50;99.90
8780;DHT22;62328;51.19929245;4.42130175;2024-01-15T06:17:29;4.60;99.90
8780;DHT22;62328;51.19929245;4.42130175;2024-01-15T06:19:57;4.50;99.90
8780;DHT22;62328;51.19929245;4.42130175;2024-01-15T06:22:24;4.50;99.90
8780;DHT22;62328;51.19929245;4.42130175;2024-01-15T06:24:53;4.50;99.90
8780;DHT22;62328;51.19929245;4.42130175;2024-01-15T06:27:21;4.50;99.90
8780;DHT22;62328;51.19929245;4.42130175;2024-01-15T06:29:48;4.50;99.90
8780;DHT22;62328;51.19929245;4.42130175;2024-01-15T06:32:15;4.50;99.90
8780;DHT22;62328;51.19929245;4.42130175;2024-01-15T06:34:43;4.70;99.90
8780;DHT22;62328;51.19929245;4.42130175;2024-01-15T06:37:10;4.50;99.90
8780;DHT22;62328;51.19929245;4.42130175;2024-01-15T06:39:37;4.60;99.90
8780;DHT22;62328;51.19929245;4.42130175;2024-01-15T06:42:06;4.60;99.90
8780;DHT22;62328;51.19929245;4.42130175;2024-01-15T06:44:35;4.70;99.90
8780;DHT22;62328;51.19929245;4.42130175;2024-01-15T06:47:02;4.80;99.90
8780;DHT22;62328;51.19929245;4.42130175;2024-01-15T06:49:29;4.70;99.90
8780;DHT22;62328;51.19929245;4.42130175;2024-01-15T06:51:57;4.70;99.90
8780;DHT22;62328;51.19929245;4.42130175;2024-01-15T06:54:24;4.70;99.90
8780;DHT22;62328;51.19929245;4.42130175;2024-01-15T06:56:52;4.60;99.90
8780;DHT22;62328;51.19929245;4.42130175;2024-01-15T06:59:20;4.70;99.90
8780;DHT22;62328;51.19929245;4.42130175;2024-01-15T07:01:48;4.60;99.90
8780;DHT22;62328;51.19929245;4.42130175;2024-01-15T07:04:15;4.60;99.90
8780;DHT22;62328;51.19929245;4.42130175;2024-01-15T07:06:42;4.60;99.90
8780;DHT22;62328;51.19929245;4.42130175;2024-01-15T07:09:10;4.70;99.90
8780;DHT22;62328;51.19929245;4.42130175;2024-01-15T07:14:14;4.70;99.90
8780;DHT22;62328;51.19929245;4.42130175;2024-01-15T07:16:43;4.70;99.90
8780;DHT22;62328;51.19929245;4.42130175;2024-01-15T07:19:10;4.60;99.90
8780;DHT22;62328;51.19929245;4.42130175;2024-01-15T07:21:37;4.70;99.90
8780;DHT22;62328;51.19929245;4.42130175;2024-01-15T07:24:05;4.50;99.90
8780;DHT22;62328;51.19929245;4.42130175;2024-01-15T07:26:34;4.50;99.90
8780;DHT22;62328;51.19929245;4.42130175;2024-01-15T07:29:01;4.40;99.90
8780;DHT22;62328;51.19929245;4.42130175;2024-01-15T07:31:29;4.30;99.90
8780;DHT22;62328;51.19929245;4.42130175;2024-01-15T07:33:57;4.30;99.90
8780;DHT22;62328;51.19929245;4.42130175;2024-01-15T07:36:26;4.40;99.90
8780;DHT22;62328;51.19929245;4.42130175;2024-01-15T07:38:54;4.40;99.90
8780;DHT22;62328;51.19929245;4.42130175;2024-01-15T07:41:21;4.30;99.90
8780;DHT22;62328;51.19929245;4.42130175;2024-01-15T07:43:49;4.30;99.90
8780;DHT22;62328;51.19929245;4.42130175;2024-01-15T07:46:16;4.30;99.90
8780;DHT22;62328;51.19929245;4.42130175;2024-01-15T07:48:43;4.40;99.90
8780;DHT22;62328;51.19929245;4.42130175;2024-01-15T07:51:12;4.60;99.90
8780;DHT22;62328;51.19929245;4.42130175;2024-01-15T07:53:39;4.40;99.90
8780;DHT22;62328;51.19929245;4.42130175;2024-01-15T07:56:07;4.30;99.90
8780;DHT22;62328;51.19929245;4.42130175;2024-01-15T07:58:34;4.40;99.90
8780;DHT22;62328;51.19929245;4.42130175;2024-01-15T08:01:01;4.40;99.90
8780;DHT22;62328;51.19929245;4.42130175;2024-01-15T08:03:29;4.40;99.90
8780;DHT22;62328;51.19929245;4.42130175;2024-01-15T08:05:56;4.40;99.90
8780;DHT22;62328;51.19929245;4.42130175;2024-01-15T08:08:26;4.40;99.90
8780;DHT22;62328;51.19929245;4.42130175;2024-01-15T08:10:53;4.50;99.90
8780;DHT22;62328;51.19929245;4.42130175;2024-01-15T08:13:21;4.50;99.90
8780;DHT22;62328;51.19929245;4.42130175;2024-01-15T08:15:48;4.40;99.90
8780;DHT22;62328;51.19929245;4.42130175;2024-01-15T08:18:16;4.50;99.90
8780;DHT22;62328;51.19929245;4.42130175;2024-01-15T08:20:44;4.60;99.90
8780;DHT22;62328;51.19929245;4.42130175;2024-01-15T08:23:11;4.50;99.90
8780;DHT22;62328;51.19929245;4.42130175;2024-01-15T08:25:40;4.60;99.90
8780;DHT22;62328;51.19929245;4.42130175;2024-01-15T08:28:07;4.60;99.90
8780;DHT22;62328;51.19929245;4.42130175;2024-01-15T08:30:34;4.60;99.90
8780;DHT22;62328;51.19929245;4.42130175;2024-01-15T08:33:01;4.50;99.90
8780;DHT22;62328;51.19929245;4.42130175;2024-01-15T08:35:29;4.60;99.90
8780;DHT22;62328;51.19929245;4.42130175;2024-01-15T08:37:56;4.60;99.90
8780;DHT22;62328;51.19929245;4.42130175;2024-01-15T08:40:24;4.60;99.90
8780;DHT22;62328;51.19929245;4.42130175;2024-01-15T08:42:53;4.70;99.90
8780;DHT22;62328;51.19929245;4.42130175;2024-01-15T08:45:21;4.60;99.90
8780;DHT22;62328;51.19929245;4.42130175;2024-01-15T08:47:50;4.50;99.90
8780;DHT22;62328;51.19929245;4.42130175;2024-01-15T08:50:18;4.60;99.90
8780;DHT22;62328;51.19929245;4.42130175;2024-01-15T08:52:45;4.60;99.90
8780;DHT22;62328;51.19929245;4.42130175;2024-01-15T08:55:12;4.60;99.90
8780;DHT22;62328;51.19929245;4.42130175;2024-01-15T08:57:40;4.60;99.90
8780;DHT22;62328;51.19929245;4.42130175;2024-01-15T09:00:10;4.50;99.90
8780;DHT22;62328;51.19929245;4.42130175;2024-01-15T09:02:37;4.50;99.90
8780;DHT22;62328;51.19929245;4.42130175;2024-01-15T09:05:05;4.50;99.90
8780;DHT22;62328;51.19929245;4.42130175;2024-01-15T09:07:32;4.50;99.90
8780;DHT22;62328;51.19929245;4.42130175;2024-01-15T09:09:59;4.50;99.90
8780;DHT22;62328;51.19929245;4.42130175;2024-01-15T09:12:27;4.50;99.90
8780;DHT22;62328;51.19929245;4.42130175;2024-01-15T09:14:55;4.40;99.90
8780;DHT22;62328;51.19929245;4.42130175;2024-01-15T09:17:23;4.40;99.90
8780;DHT22;62328;51.19929245;4.42130175;2024-01-15T09:19:51;4.50;99.90
8780;DHT22;62328;51.19929245;4.42130175;2024-01-15T09:22:21;4.60;99.90
8780;DHT22;62328;51.19929245;4.42130175;2024-01-15T09:24:49;4.70;99.90
8780;DHT22;62328;51.19929245;4.42130175;2024-01-15T09:27:16;4.70;99.90
8780;DHT22;62328;51.19929245;4.42130175;2024-01-15T09:29:43;4.70;99.90
8780;DHT22;62328;51.19929245;4.42130175;2024-01-15T09:32:11;4.70;99.90
8780;DHT22;62328;51.19929245;4.42130175;2024-01-15T09:34:40;4.80;99.90
8780;DHT22;62328;51.19929245;4.42130175;2024-01-15T09:37:07;4.90;99.90
8780;DHT22;62328;51.19929245;4.42130175;2024-01-15T09:39:35;4.80;99.90
8780;DHT22;62328;51.19929245;4.42130175;2024-01-15T09:42:03;4.80;99.90
8780;DHT22;62328;51.19929245;4.42130175;2024-01-15T09:44:31;4.80;99.90
8780;DHT22;62328;51.19929245;4.42130175;2024-01-15T09:46:59;4.90;99.90
8780;DHT22;62328;51.19929245;4.42130175;2024-01-15T09:49:26;4.90;99.90
8780;DHT22;62328;51.19929245;4.42130175;2024-01-15T09:51:57;4.90;99.90
8780;DHT22;62328;51.19929245;4.42130175;2024-01-15T09:54:25;5.00;99.90
8780;DHT22;62328;51.19929245;4.42130175;2024-01-15T09:56:52;5.00;99.90
8780;DHT22;62328;51.19929245;4.42130175;2024-01-15T09:59:20;5.00;99.90
8780;DHT22;62328;51.19929245;4.42130175;2024-01-15T10:01:50;5.10;99.90
8780;DHT22;62328;51.19929245;4.42130175;2024-01-15T10:04:18;5.10;99.90
8780;DHT22;62328;51.19929245;4.42130175;2024-01-15T10:06:46;5.20;99.90
8780;DHT22;62328;51.19929245;4.42130175;2024-01-15T10:09:15;5.20;99.90
8780;DHT22;62328;51.19929245;4.42130175;2024-01-15T10:11:42;5.20;99.90
8780;DHT22;62328;51.19929245;4.42130175;2024-01-15T10:14:10;5.30;99.90
8780;DHT22;62328;51.19929245;4.42130175;2024-01-15T10:16:38;5.30;99.90
8780;DHT22;62328;51.19929245;4.42130175;2024-01-15T10:19:05;5.40;99.90
8780;DHT22;62328;51.19929245;4.42130175;2024-01-15T10:21:33;5.40;99.90
8780;DHT22;62328;51.19929245;4.42130175;2024-01-15T10:24:02;5.50;99.90
8780;DHT22;62328;51.19929245;4.42130175;2024-01-15T10:26:31;5.60;99.90
8780;DHT22;62328;51.19929245;4.42130175;2024-01-15T10:28:59;5.70;99.90
8780;DHT22;62328;51.19929245;4.42130175;2024-01-15T10:31:27;5.70;99.90
8780;DHT22;62328;51.19929245;4.42130175;2024-01-15T10:33:54;5.70;99.90
8780;DHT22;62328;51.19929245;4.42130175;2024-01-15T10:36:28;5.70;99.90
8780;DHT22;62328;51.19929245;4.42130175;2024-01-15T10:38:58;5.60;99.90
8780;DHT22;62328;51.19929245;4.42130175;2024-01-15T10:41:25;5.50;99.90
8780;DHT22;62328;51.19929245;4.42130175;2024-01-15T10:43:54;5.40;99.90
8780;DHT22;62328;51.19929245;4.42130175;2024-01-15T10:46:21;5.30;99.90
8780;DHT22;62328;51.19929245;4.42130175;2024-01-15T10:48:48;5.40;99.90
8780;DHT22;62328;51.19929245;4.42130175;2024-01-15T10:51:16;5.30;99.90
8780;DHT22;62328;51.19929245;4.42130175;2024-01-15T10:53:44;5.20;99.90
8780;DHT22;62328;51.19929245;4.42130175;2024-01-15T10:56:13;5.20;99.90
8780;DHT22;62328;51.19929245;4.42130175;2024-01-15T10:58:41;5.20;99.90
8780;DHT22;62328;51.19929245;4.42130175;2024-01-15T11:01:11;5.20;99.90
8780;DHT22;62328;51.19929245;4.42130175;2024-01-15T11:03:40;5.20;99.90
8780;DHT22;62328;51.19929245;4.42130175;2024-01-15T11:06:16;5.20;99.90
8780;DHT22;62328;51.19929245;4.42130175;2024-01-15T11:08:45;5.20;99.90
8780;DHT22;62328;51.19929245;4.42130175;2024-01-15T11:11:13;5.30;99.90
8780;DHT22;62328;51.19929245;4.42130175;2024-01-15T11:13:41;5.30;99.90
8780;DHT22;62328;51.19929245;4.42130175;2024-01-15T11:16:13;5.30;99.90
8780;DHT22;62328;51.19929245;4.42130175;2024-01-15T11:18:41;5.20;99.90
8780;DHT22;62328;51.19929245;4.42130175;2024-01-15T11:21:25;5.20;99.90
8780;DHT22;62328;51.19929245;4.42130175;2024-01-15T11:23:54;5.30;99.90
8780;DHT22;62328;51.19929245;4.42130175;2024-01-15T11:26:30;5.40;99.90
8780;DHT22;62328;51.19929245;4.42130175;2024-01-15T11:28:59;5.40;99.90
8780;DHT22;62328;51.19929245;4.42130175;2024-01-15T11:31:58;5.40;99.90
8780;DHT22;62328;51.19929245;4.42130175;2024-01-15T11:34:51;5.30;99.90
8780;DHT22;62328;51.19929245;4.42130175;2024-01-15T11:37:19;5.00;99.90
8780;DHT22;62328;51.19929245;4.42130175;2024-01-15T11:39:46;4.80;99.90
8780;DHT22;62328;51.19929245;4.42130175;2024-01-15T11:42:14;4.60;99.90
8780;DHT22;62328;51.19929245;4.42130175;2024-01-15T11:44:42;4.40;99.90
8780;DHT22;62328;51.19929245;4.42130175;2024-01-15T11:47:12;4.20;99.90
8780;DHT22;62328;51.19929245;4.42130175;2024-01-15T11:50:00;4.00;99.90
8780;DHT22;62328;51.19929245;4.42130175;2024-01-15T11:52:32;3.90;99.90
8780;DHT22;62328;51.19929245;4.42130175;2024-01-15T11:55:07;3.90;99.90
8780;DHT22;62328;51.19929245;4.42130175;2024-01-15T11:57:46;3.90;99.90
8780;DHT22;62328;51.19929245;4.42130175;2024-01-15T12:00:14;3.90;99.90
8780;DHT22;62328;51.19929245;4.42130175;2024-01-15T12:02:44;4.00;99.90
8780;DHT22;62328;51.19929245;4.42130175;2024-01-15T12:05:12;4.10;99.90
8780;DHT22;62328;51.19929245;4.42130175;2024-01-15T12:07:40;4.20;99.90
8780;DHT22;62328;51.19929245;4.42130175;2024-01-15T12:13:25;4.30;99.90
8780;DHT22;62328;51.19929245;4.42130175;2024-01-15T12:15:56;4.40;99.90
8780;DHT22;62328;51.19929245;4.42130175;2024-01-15T12:18:36;5.50;99.90
8780;DHT22;62328;51.19929245;4.42130175;2024-01-15T12:21:06;4.20;99.90
8780;DHT22;62328;51.19929245;4.42130175;2024-01-15T12:23:34;4.00;99.90
8780;DHT22;62328;51.19929245;4.42130175;2024-01-15T12:26:02;3.90;99.90
8780;DHT22;62328;51.19929245;4.42130175;2024-01-15T12:28:31;3.90;99.90
8780;DHT22;62328;51.19929245;4.42130175;2024-01-15T12:30:59;3.90;99.90
8780;DHT22;62328;51.19929245;4.42130175;2024-01-15T12:33:31;3.80;99.90
8780;DHT22;62328;51.19929245;4.42130175;2024-01-15T12:35:59;3.70;99.90
8780;DHT22;62328;51.19929245;4.42130175;2024-01-15T12:38:28;3.70;99.90
8780;DHT22;62328;51.19929245;4.42130175;2024-01-15T12:40:55;3.20;99.90
8780;DHT22;62328;51.19929245;4.42130175;2024-01-15T12:43:23;3.60;99.90
8780;DHT22;62328;51.19929245;4.42130175;2024-01-15T12:45:51;3.50;99.90
8780;DHT22;62328;51.19929245;4.42130175;2024-01-15T12:48:19;3.60;99.90
8780;DHT22;62328;51.19929245;4.42130175;2024-01-15T12:50:47;3.50;99.90
8780;DHT22;62328;51.19929245;4.42130175;2024-01-15T12:53:21;3.50;99.90
8780;DHT22;62328;51.19929245;4.42130175;2024-01-15T12:55:49;3.50;99.90
8780;DHT22;62328;51.19929245;4.42130175;2024-01-15T12:58:16;2.70;99.90
8780;DHT22;62328;51.19929245;4.42130175;2024-01-15T13:00:44;3.60;99.90
8780;DHT22;62328;51.19929245;4.42130175;2024-01-15T13:03:13;3.60;99.90
8780;DHT22;62328;51.19929245;4.42130175;2024-01-15T13:05:41;3.50;99.90
8780;DHT22;62328;51.19929245;4.42130175;2024-01-15T13:08:08;3.50;99.90
8780;DHT22;62328;51.19929245;4.42130175;2024-01-15T13:10:37;3.50;99.90
8780;DHT22;62328;51.19929245;4.42130175;2024-01-15T13:13:05;3.50;99.90
8780;DHT22;62328;51.19929245;4.42130175;2024-01-15T13:15:34;3.50;99.90
8780;DHT22;62328;51.19929245;4.42130175;2024-01-15T13:18:03;3.60;99.90
8780;DHT22;62328;51.19929245;4.42130175;2024-01-15T13:20:31;3.60;99.90
8780;DHT22;62328;51.19929245;4.42130175;2024-01-15T13:22:58;3.40;99.90
8780;DHT22;62328;51.19929245;4.42130175;2024-01-15T13:25:25;3.50;99.90
8780;DHT22;62328;51.19929245;4.42130175;2024-01-15T13:27:54;3.40;99.90
8780;DHT22;62328;51.19929245;4.42130175;2024-01-15T13:30:21;3.50;99.90
8780;DHT22;62328;51.19929245;4.42130175;2024-01-15T13:32:48;3.80;99.90
8780;DHT22;62328;51.19929245;4.42130175;2024-01-15T13:35:16;3.60;99.90
8780;DHT22;62328;51.19929245;4.42130175;2024-01-15T13:37:43;3.60;99.90
8780;DHT22;62328;51.19929245;4.42130175;2024-01-15T13:40:10;3.60;99.90
8780;DHT22;62328;51.19929245;4.42130175;2024-01-15T13:42:42;3.70;99.90
8780;DHT22;62328;51.19929245;4.42130175;2024-01-15T13:45:11;3.80;99.90
8780;DHT22;62328;51.19929245;4.42130175;2024-01-15T13:47:40;4.10;99.90
8780;DHT22;62328;51.19929245;4.42130175;2024-01-15T13:50:08;4.00;99.90
8780;DHT22;62328;51.19929245;4.42130175;2024-01-15T13:52:36;4.10;99.90
8780;DHT22;62328;51.19929245;4.42130175;2024-01-15T13:55:03;4.10;99.90
8780;DHT22;62328;51.19929245;4.42130175;2024-01-15T13:57:32;4.00;99.90